sensor_id;sensor_type;location;lat;lon;timestamp;pressure;altitude;pressure_sealevel;temperature;humidity
11172;BME280;5642;50.830;12.082;2023-03-25T00:02:15;98421.13;;;11.02;49.04
11172;BME280;5642;50.830;12.082;2023-03-25T00:04:51;98411.47;;;11.03;49.17
11172;BME280;5642;50.830;12.082;2023-03-25T00:07:19;98412.41;;;11.02;48.98
11172;BME280;5642;50.830;12.082;2023-03-25T00:09:46;98418.28;;;11.07;49.04
11172;BME280;5642;50.830;12.082;2023-03-25T00:12:14;98417.06;;;11.14;48.74
11172;BME280;5642;50.830;12.082;2023-03-25T00:14:41;98423.63;;;11.22;48.63
11172;BME280;5642;50.830;12.082;2023-03-25T00:17:08;98399.41;;;11.17;48.72
11172;BME280;5642;50.830;12.082;2023-03-25T00:19:35;98417.69;;;11.36;48.45
11172;BME280;5642;50.830;12.082;2023-03-25T00:22:01;98401.19;;;11.34;48.66
11172;BME280;5642;50.830;12.082;2023-03-25T00:24:27;98397.47;;;11.38;48.49
11172;BME280;5642;50.830;12.082;2023-03-25T00:26:54;98400.81;;;11.42;48.31
11172;BME280;5642;50.830;12.082;2023-03-25T00:29:20;98397.53;;;11.54;48.40
11172;BME280;5642;50.830;12.082;2023-03-25T00:31:46;98377.66;;;11.50;48.47
11172;BME280;5642;50.830;12.082;2023-03-25T00:34:15;98399.44;;;11.67;48.31
11172;BME280;5642;50.830;12.082;2023-03-25T00:36:41;98392.19;;;11.72;48.20
11172;BME280;5642;50.830;12.082;2023-03-25T00:39:08;98388.44;;;11.78;48.25
11172;BME280;5642;50.830;12.082;2023-03-25T00:41:35;98383.09;;;11.80;48.56
11172;BME280;5642;50.830;12.082;2023-03-25T00:44:02;98353.94;;;11.68;48.37
11172;BME280;5642;50.830;12.082;2023-03-25T00:46:31;98357.63;;;11.82;48.32
11172;BME280;5642;50.830;12.082;2023-03-25T00:48:58;98361.63;;;11.89;48.53
11172;BME280;5642;50.830;12.082;2023-03-25T00:51:25;98345.88;;;11.89;48.52
11172;BME280;5642;50.830;12.082;2023-03-25T00:53:54;98370.81;;;12.13;48.27
11172;BME280;5642;50.830;12.082;2023-03-25T00:56:21;98377.44;;;12.20;48.16
11172;BME280;5642;50.830;12.082;2023-03-25T00:58:48;98376.41;;;12.23;47.99
11172;BME280;5642;50.830;12.082;2023-03-25T01:01:18;98374.38;;;12.28;48.27
11172;BME280;5642;50.830;12.082;2023-03-25T01:03:49;98385.56;;;12.47;47.91
11172;BME280;5642;50.830;12.082;2023-03-25T01:06:31;98351.00;;;12.39;47.98
11172;BME280;5642;50.830;12.082;2023-03-25T01:08:59;98355.41;;;12.54;48.15
11172;BME280;5642;50.830;12.082;2023-03-25T01:11:30;98369.63;;;12.66;47.88
11172;BME280;5642;50.830;12.082;2023-03-25T01:14:00;98359.09;;;12.66;47.90
11172;BME280;5642;50.830;12.082;2023-03-25T01:16:28;98350.56;;;12.62;48.01
11172;BME280;5642;50.830;12.082;2023-03-25T01:18:54;98360.16;;;12.63;48.39
11172;BME280;5642;50.830;12.082;2023-03-25T01:21:21;98348.03;;;12.61;47.95
11172;BME280;5642;50.830;12.082;2023-03-25T01:23:48;98353.34;;;12.59;48.14
11172;BME280;5642;50.830;12.082;2023-03-25T01:26:15;98336.09;;;12.39;48.55
11172;BME280;5642;50.830;12.082;2023-03-25T01:28:42;98363.13;;;12.41;48.65
11172;BME280;5642;50.830;12.082;2023-03-25T01:31:14;98364.31;;;12.36;48.68
11172;BME280;5642;50.830;12.082;2023-03-25T01:33:41;98350.13;;;12.23;48.79
11172;BME280;5642;50.830;12.082;2023-03-25T01:36:07;98367.09;;;12.33;48.79
11172;BME280;5642;50.830;12.082;2023-03-25T01:38:40;98359.28;;;12.31;49.04
11172;BME280;5642;50.830;12.082;2023-03-25T01:41:08;98311.88;;;12.03;48.76
11172;BME280;5642;50.830;12.082;2023-03-25T01:43:34;98344.72;;;12.26;48.77
11172;BME280;5642;50.830;12.082;2023-03-25T01:46:01;98353.19;;;12.31;48.99
11172;BME280;5642;50.830;12.082;2023-03-25T01:48:36;98336.34;;;12.35;48.98
11172;BME280;5642;50.830;12.082;2023-03-25T01:53:38;98319.84;;;12.33;48.70
11172;BME280;5642;50.830;12.082;2023-03-25T01:56:05;98308.56;;;12.31;48.71
11172;BME280;5642;50.830;12.082;2023-03-25T01:58:34;98316.88;;;12.39;48.93
11172;BME280;5642;50.830;12.082;2023-03-25T02:01:02;98310.84;;;12.37;48.65
11172;BME280;5642;50.830;12.082;2023-03-25T02:03:29;98304.84;;;12.35;48.84
11172;BME280;5642;50.830;12.082;2023-03-25T02:06:08;98301.44;;;12.33;48.88
11172;BME280;5642;50.830;12.082;2023-03-25T02:08:38;98303.91;;;12.36;48.76
11172;BME280;5642;50.830;12.082;2023-03-25T02:11:09;98291.81;;;12.33;48.78
11172;BME280;5642;50.830;12.082;2023-03-25T02:13:37;98298.56;;;12.37;48.59
11172;BME280;5642;50.830;12.082;2023-03-25T02:16:27;98295.84;;;12.39;48.64
11172;BME280;5642;50.830;12.082;2023-03-25T02:40:46;98269.34;;;12.73;48.58
11172;BME280;5642;50.830;12.082;2023-03-25T02:45:50;98272.44;;;12.80;48.12
11172;BME280;5642;50.830;12.082;2023-03-25T02:51:15;98271.75;;;12.92;48.28
11172;BME280;5642;50.830;12.082;2023-03-25T02:53:45;98240.84;;;12.81;48.39
11172;BME280;5642;50.830;12.082;2023-03-25T02:56:15;98279.47;;;13.09;48.28
11172;BME280;5642;50.830;12.082;2023-03-25T02:58:43;98258.41;;;12.95;48.28
11172;BME280;5642;50.830;12.082;2023-03-25T03:01:10;98291.34;;;13.16;48.13
11172;BME280;5642;50.830;12.082;2023-03-25T03:03:39;98286.00;;;13.18;48.18
11172;BME280;5642;50.830;12.082;2023-03-25T03:06:07;98285.72;;;13.22;47.99
11172;BME280;5642;50.830;12.082;2023-03-25T03:14:44;98286.97;;;13.31;48.01
11172;BME280;5642;50.830;12.082;2023-03-25T03:20:30;98298.03;;;13.36;48.17
11172;BME280;5642;50.830;12.082;2023-03-25T03:25:35;98274.47;;;13.35;47.98
11172;BME280;5642;50.830;12.082;2023-03-25T03:28:43;98278.97;;;13.32;48.00
11172;BME280;5642;50.830;12.082;2023-03-25T03:31:32;98290.97;;;13.22;48.16
11172;BME280;5642;50.830;12.082;2023-03-25T03:34:07;98308.75;;;13.19;48.46
11172;BME280;5642;50.830;12.082;2023-03-25T03:36:44;98322.66;;;13.21;48.56
11172;BME280;5642;50.830;12.082;2023-03-25T03:39:18;98317.28;;;13.22;48.20
11172;BME280;5642;50.830;12.082;2023-03-25T03:41:52;98312.00;;;13.22;48.35
11172;BME280;5642;50.830;12.082;2023-03-25T03:44:23;98309.03;;;13.28;48.14
11172;BME280;5642;50.830;12.082;2023-03-25T03:46:54;98314.38;;;13.27;48.03
11172;BME280;5642;50.830;12.082;2023-03-25T03:49:28;98311.75;;;13.27;48.28
11172;BME280;5642;50.830;12.082;2023-03-25T03:52:07;98324.13;;;13.25;48.17
11172;BME280;5642;50.830;12.082;2023-03-25T03:54:43;98322.44;;;13.24;48.17
11172;BME280;5642;50.830;12.082;2023-03-25T03:57:19;98320.09;;;13.19;48.34
11172;BME280;5642;50.830;12.082;2023-03-25T04:02:43;98315.44;;;13.09;48.51
11172;BME280;5642;50.830;12.082;2023-03-25T04:05:15;98308.00;;;13.01;48.37
11172;BME280;5642;50.830;12.082;2023-03-25T04:07:52;98308.59;;;13.06;48.19
11172;BME280;5642;50.830;12.082;2023-03-25T04:10:54;98315.03;;;13.01;48.25
11172;BME280;5642;50.830;12.082;2023-03-25T04:13:27;98309.13;;;12.97;48.23
11172;BME280;5642;50.830;12.082;2023-03-25T04:15:57;98309.47;;;12.91;48.58
11172;BME280;5642;50.830;12.082;2023-03-25T04:18:25;98331.34;;;12.91;47.93
11172;BME280;5642;50.830;12.082;2023-03-25T04:20:54;98297.84;;;12.65;48.05
11172;BME280;5642;50.830;12.082;2023-03-25T04:23:20;98351.88;;;12.85;48.00
11172;BME280;5642;50.830;12.082;2023-03-25T04:25:47;98355.63;;;12.81;48.02
11172;BME280;5642;50.830;12.082;2023-03-25T04:28:19;98335.31;;;12.69;48.23
11172;BME280;5642;50.830;12.082;2023-03-25T04:30:46;98356.97;;;12.72;48.10
11172;BME280;5642;50.830;12.082;2023-03-25T04:33:13;98330.50;;;12.45;47.94
11172;BME280;5642;50.830;12.082;2023-03-25T04:35:39;98372.78;;;12.57;47.84
11172;BME280;5642;50.830;12.082;2023-03-25T04:38:06;98358.03;;;12.38;48.21
11172;BME280;5642;50.830;12.082;2023-03-25T04:40:32;98349.47;;;12.19;48.09
11172;BME280;5642;50.830;12.082;2023-03-25T04:42:59;98368.94;;;12.15;48.04
11172;BME280;5642;50.830;12.082;2023-03-25T04:45:25;98375.88;;;12.00;48.34
11172;BME280;5642;50.830;12.082;2023-03-25T04:47:53;98382.78;;;11.86;48.38
11172;BME280;5642;50.830;12.082;2023-03-25T04:50:21;98335.00;;;11.46;48.70
11172;BME280;5642;50.830;12.082;2023-03-25T04:52:49;98383.25;;;11.59;48.36
11172;BME280;5642;50.830;12.082;2023-03-25T04:55:16;98355.91;;;11.30;48.76
11172;BME280;5642;50.830;12.082;2023-03-25T04:57:46;98388.75;;;11.37;48.56
11172;BME280;5642;50.830;12.082;2023-03-25T05:00:14;98383.91;;;11.30;48.73
11172;BME280;5642;50.830;12.082;2023-03-25T05:02:45;98387.84;;;11.21;48.79
11172;BME280;5642;50.830;12.082;2023-03-25T05:05:14;98383.06;;;11.12;48.80
11172;BME280;5642;50.830;12.082;2023-03-25T05:07:45;98392.09;;;11.07;48.70
11172;BME280;5642;50.830;12.082;2023-03-25T05:10:12;98388.81;;;11.02;48.60
11172;BME280;5642;50.830;12.082;2023-03-25T05:12:39;98397.47;;;11.04;48.58
11172;BME280;5642;50.830;12.082;2023-03-25T05:15:06;98399.88;;;11.08;48.55
11172;BME280;5642;50.830;12.082;2023-03-25T05:17:33;98398.84;;;11.11;48.35
11172;BME280;5642;50.830;12.082;2023-03-25T05:19:59;98392.94;;;11.07;48.66
11172;BME280;5642;50.830;12.082;2023-03-25T05:22:25;98380.16;;;11.01;48.44
11172;BME280;5642;50.830;12.082;2023-03-25T05:24:51;98397.88;;;11.13;48.29
11172;BME280;5642;50.830;12.082;2023-03-25T05:27:19;98381.38;;;11.11;48.22
11172;BME280;5642;50.830;12.082;2023-03-25T05:29:46;98388.59;;;11.23;48.31
11172;BME280;5642;50.830;12.082;2023-03-25T05:32:12;98350.91;;;11.09;48.05
11172;BME280;5642;50.830;12.082;2023-03-25T05:34:45;98378.97;;;11.41;48.03
11172;BME280;5642;50.830;12.082;2023-03-25T05:37:12;98391.22;;;11.58;48.05
11172;BME280;5642;50.830;12.082;2023-03-25T05:39:39;98386.25;;;11.69;48.02
11172;BME280;5642;50.830;12.082;2023-03-25T05:42:05;98389.75;;;12.02;47.55
11172;BME280;5642;50.830;12.082;2023-03-25T05:44:31;98368.88;;;12.64;46.25
11172;BME280;5642;50.830;12.082;2023-03-25T05:46:57;98395.13;;;13.55;45.28
11172;BME280;5642;50.830;12.082;2023-03-25T05:49:27;98390.91;;;14.09;44.88
11172;BME280;5642;50.830;12.082;2023-03-25T05:51:53;98348.78;;;14.09;44.69
11172;BME280;5642;50.830;12.082;2023-03-25T05:54:21;98391.38;;;14.30;44.93
11172;BME280;5642;50.830;12.082;2023-03-25T05:56:50;98386.88;;;14.18;45.48
11172;BME280;5642;50.830;12.082;2023-03-25T05:59:16;98394.88;;;14.02;45.94
11172;BME280;5642;50.830;12.082;2023-03-25T06:01:42;98385.56;;;13.82;46.26
11172;BME280;5642;50.830;12.082;2023-03-25T06:04:15;98399.56;;;13.68;46.37
11172;BME280;5642;50.830;12.082;2023-03-25T06:06:41;98370.19;;;13.32;46.65
11172;BME280;5642;50.830;12.082;2023-03-25T06:09:08;98396.19;;;13.37;46.88
11172;BME280;5642;50.830;12.082;2023-03-25T06:11:35;98398.34;;;13.30;47.19
11172;BME280;5642;50.830;12.082;2023-03-25T06:14:03;98397.94;;;13.22;47.15
11172;BME280;5642;50.830;12.082;2023-03-25T06:16:30;98398.28;;;13.16;47.31
11172;BME280;5642;50.830;12.082;2023-03-25T06:18:58;98396.75;;;13.12;47.54
11172;BME280;5642;50.830;12.082;2023-03-25T06:21:26;98398.63;;;13.10;47.32
11172;BME280;5642;50.830;12.082;2023-03-25T06:23:53;98404.66;;;13.12;47.47
11172;BME280;5642;50.830;12.082;2023-03-25T06:26:21;98403.56;;;13.16;47.31
11172;BME280;5642;50.830;12.082;2023-03-25T06:28:48;98403.41;;;13.19;47.36
11172;BME280;5642;50.830;12.082;2023-03-25T06:31:16;98406.44;;;13.27;47.27
11172;BME280;5642;50.830;12.082;2023-03-25T06:33:48;98402.59;;;13.32;47.29
11172;BME280;5642;50.830;12.082;2023-03-25T06:36:17;98392.34;;;13.28;47.45
11172;BME280;5642;50.830;12.082;2023-03-25T06:38:48;98410.31;;;13.36;47.54
11172;BME280;5642;50.830;12.082;2023-03-25T06:41:15;98400.41;;;13.25;47.31
11172;BME280;5642;50.830;12.082;2023-03-25T06:43:46;98406.59;;;13.24;47.56
11172;BME280;5642;50.830;12.082;2023-03-25T06:46:12;98401.63;;;13.19;47.43
11172;BME280;5642;50.830;12.082;2023-03-25T06:48:38;98396.84;;;13.10;47.67
11172;BME280;5642;50.830;12.082;2023-03-25T06:51:05;98403.59;;;13.00;47.62
11172;BME280;5642;50.830;12.082;2023-03-25T06:53:31;98410.78;;;12.97;47.52
11172;BME280;5642;50.830;12.082;2023-03-25T06:55:57;98396.88;;;12.79;47.55
11172;BME280;5642;50.830;12.082;2023-03-25T06:58:24;98411.28;;;12.87;47.71
11172;BME280;5642;50.830;12.082;2023-03-25T07:00:53;98415.88;;;12.84;47.88
11172;BME280;5642;50.830;12.082;2023-03-25T07:03:20;98412.84;;;12.76;47.69
11172;BME280;5642;50.830;12.082;2023-03-25T07:05:47;98425.28;;;12.72;47.93
11172;BME280;5642;50.830;12.082;2023-03-25T07:08:14;98424.69;;;12.67;48.00
11172;BME280;5642;50.830;12.082;2023-03-25T07:10:40;98416.06;;;12.65;48.18
11172;BME280;5642;50.830;12.082;2023-03-25T07:13:08;98417.59;;;12.69;47.83
11172;BME280;5642;50.830;12.082;2023-03-25T07:15:33;98427.06;;;12.72;48.04
11172;BME280;5642;50.830;12.082;2023-03-25T07:18:00;98432.16;;;12.75;48.20
11172;BME280;5642;50.830;12.082;2023-03-25T07:20:26;98431.31;;;12.74;47.94
11172;BME280;5642;50.830;12.082;2023-03-25T07:22:55;98427.06;;;12.72;48.11
11172;BME280;5642;50.830;12.082;2023-03-25T07:25:21;98424.69;;;12.67;47.87
11172;BME280;5642;50.830;12.082;2023-03-25T07:27:47;98419.03;;;12.59;47.97
11172;BME280;5642;50.830;12.082;2023-03-25T07:30:13;98425.91;;;12.62;47.87
11172;BME280;5642;50.830;12.082;2023-03-25T07:32:43;98434.72;;;12.61;48.10
11172;BME280;5642;50.830;12.082;2023-03-25T07:35:09;98434.78;;;12.59;48.25
11172;BME280;5642;50.830;12.082;2023-03-25T07:37:35;98430.03;;;12.66;48.26
11172;BME280;5642;50.830;12.082;2023-03-25T07:40:02;98430.47;;;12.74;48.21
11172;BME280;5642;50.830;12.082;2023-03-25T07:42:28;98426.06;;;12.74;48.16
11172;BME280;5642;50.830;12.082;2023-03-25T07:44:54;98422.84;;;12.85;47.89
11172;BME280;5642;50.830;12.082;2023-03-25T07:47:21;98425.78;;;12.94;48.03
11172;BME280;5642;50.830;12.082;2023-03-25T07:49:47;98424.63;;;13.00;48.34
11172;BME280;5642;50.830;12.082;2023-03-25T07:52:14;98424.78;;;13.13;47.99
11172;BME280;5642;50.830;12.082;2023-03-25T07:54:42;98427.63;;;13.24;47.99
11172;BME280;5642;50.830;12.082;2023-03-25T07:57:09;98423.47;;;13.36;47.81
11172;BME280;5642;50.830;12.082;2023-03-25T07:59:35;98437.13;;;13.56;47.88
11172;BME280;5642;50.830;12.082;2023-03-25T08:02:02;98430.59;;;13.78;47.71
11172;BME280;5642;50.830;12.082;2023-03-25T08:04:28;98440.19;;;13.93;47.61
11172;BME280;5642;50.830;12.082;2023-03-25T08:06:55;98446.41;;;14.06;47.49
11172;BME280;5642;50.830;12.082;2023-03-25T08:09:27;98458.16;;;14.15;47.46
11172;BME280;5642;50.830;12.082;2023-03-25T08:11:53;98450.84;;;14.20;47.47
11172;BME280;5642;50.830;12.082;2023-03-25T08:14:19;98443.97;;;14.31;47.32
11172;BME280;5642;50.830;12.082;2023-03-25T08:16:46;98451.41;;;14.53;47.35
11172;BME280;5642;50.830;12.082;2023-03-25T08:19:12;98445.28;;;14.94;46.93
11172;BME280;5642;50.830;12.082;2023-03-25T08:21:38;98439.78;;;15.50;46.48
11172;BME280;5642;50.830;12.082;2023-03-25T08:24:05;98445.25;;;16.25;46.03
11172;BME280;5642;50.830;12.082;2023-03-25T08:26:32;98420.56;;;17.57;45.52
11172;BME280;5642;50.830;12.082;2023-03-25T08:29:00;98413.94;;;19.19;44.88
11172;BME280;5642;50.830;12.082;2023-03-25T08:31:31;98379.41;;;20.53;44.37
11172;BME280;5642;50.830;12.082;2023-03-25T08:33:59;98368.34;;;22.12;43.77
11172;BME280;5642;50.830;12.082;2023-03-25T08:36:25;98405.03;;;23.55;42.76
11172;BME280;5642;50.830;12.082;2023-03-25T08:38:53;98408.06;;;24.21;42.63
11172;BME280;5642;50.830;12.082;2023-03-25T08:41:19;98404.19;;;24.49;42.62
11172;BME280;5642;50.830;12.082;2023-03-25T08:43:51;98369.00;;;23.59;42.85
11172;BME280;5642;50.830;12.082;2023-03-25T08:46:21;98423.88;;;23.18;42.99
11172;BME280;5642;50.830;12.082;2023-03-25T08:48:52;98420.78;;;23.58;42.78
11172;BME280;5642;50.830;12.082;2023-03-25T08:51:28;98401.97;;;23.14;43.04
11172;BME280;5642;50.830;12.082;2023-03-25T08:53:54;98375.28;;;22.59;43.18
11172;BME280;5642;50.830;12.082;2023-03-25T08:56:20;98408.84;;;22.62;43.15
11172;BME280;5642;50.830;12.082;2023-03-25T08:58:46;98399.28;;;23.32;42.83
11172;BME280;5642;50.830;12.082;2023-03-25T09:01:13;98399.28;;;24.37;42.12
11172;BME280;5642;50.830;12.082;2023-03-25T09:03:39;98377.00;;;25.20;42.26
11172;BME280;5642;50.830;12.082;2023-03-25T09:06:07;98409.00;;;26.03;41.64
11172;BME280;5642;50.830;12.082;2023-03-25T09:08:35;98365.25;;;25.94;41.56
11172;BME280;5642;50.830;12.082;2023-03-25T09:11:02;98404.19;;;25.74;41.37
11172;BME280;5642;50.830;12.082;2023-03-25T09:13:32;98391.09;;;24.72;41.83
11172;BME280;5642;50.830;12.082;2023-03-25T09:15:58;98383.78;;;23.71;42.47
11172;BME280;5642;50.830;12.082;2023-03-25T09:18:26;98383.34;;;22.87;42.70
11172;BME280;5642;50.830;12.082;2023-03-25T09:20:58;98421.75;;;22.66;42.77
11172;BME280;5642;50.830;12.082;2023-03-25T09:23:25;98366.53;;;22.67;42.56
11172;BME280;5642;50.830;12.082;2023-03-25T09:26:01;98377.38;;;22.38;42.37
11172;BME280;5642;50.830;12.082;2023-03-25T09:28:29;98415.66;;;22.10;42.68
11172;BME280;5642;50.830;12.082;2023-03-25T09:30:55;98414.47;;;21.66;42.73
11172;BME280;5642;50.830;12.082;2023-03-25T09:33:24;98384.72;;;21.13;42.60
11172;BME280;5642;50.830;12.082;2023-03-25T09:35:59;98410.22;;;20.96;42.42
11172;BME280;5642;50.830;12.082;2023-03-25T09:38:27;98410.19;;;20.46;42.91
11172;BME280;5642;50.830;12.082;2023-03-25T09:40:53;98426.44;;;20.22;42.80
11172;BME280;5642;50.830;12.082;2023-03-25T09:43:31;98427.25;;;19.92;42.79
11172;BME280;5642;50.830;12.082;2023-03-25T09:46:02;98432.50;;;20.24;43.26
11172;BME280;5642;50.830;12.082;2023-03-25T09:48:42;98436.19;;;21.61;42.92
11172;BME280;5642;50.830;12.082;2023-03-25T09:51:23;98416.47;;;23.12;43.13
11172;BME280;5642;50.830;12.082;2023-03-25T09:56:45;98401.78;;;26.28;42.39
11172;BME280;5642;50.830;12.082;2023-03-25T09:59:24;98387.75;;;27.49;41.67
11172;BME280;5642;50.830;12.082;2023-03-25T10:02:06;98397.16;;;27.53;41.34
11172;BME280;5642;50.830;12.082;2023-03-25T10:13:47;98407.28;;;27.20;40.69
11172;BME280;5642;50.830;12.082;2023-03-25T10:21:52;98379.16;;;27.54;40.45
11172;BME280;5642;50.830;12.082;2023-03-25T10:24:28;98381.16;;;28.12;40.21
11172;BME280;5642;50.830;12.082;2023-03-25T10:29:40;98390.03;;;27.60;40.08
11172;BME280;5642;50.830;12.082;2023-03-25T10:35:38;98385.38;;;27.54;39.91
11172;BME280;5642;50.830;12.082;2023-03-25T10:38:11;98380.28;;;27.14;39.70
11172;BME280;5642;50.830;12.082;2023-03-25T10:40:41;98387.81;;;26.48;39.43
11172;BME280;5642;50.830;12.082;2023-03-25T10:46:05;98374.38;;;24.86;39.64
11172;BME280;5642;50.830;12.082;2023-03-25T10:48:35;98373.34;;;24.11;40.11
11172;BME280;5642;50.830;12.082;2023-03-25T10:51:04;98371.22;;;23.28;40.07
11172;BME280;5642;50.830;12.082;2023-03-25T10:53:33;98363.03;;;22.66;40.00
11172;BME280;5642;50.830;12.082;2023-03-25T10:56:06;98382.41;;;22.41;39.94
11172;BME280;5642;50.830;12.082;2023-03-25T10:58:36;98354.31;;;22.10;40.34
11172;BME280;5642;50.830;12.082;2023-03-25T11:01:17;98348.72;;;22.13;40.16
11172;BME280;5642;50.830;12.082;2023-03-25T11:03:48;98389.28;;;22.98;40.77
11172;BME280;5642;50.830;12.082;2023-03-25T11:06:28;98363.88;;;23.91;41.19
11172;BME280;5642;50.830;12.082;2023-03-25T11:09:23;98371.28;;;25.07;41.42
11172;BME280;5642;50.830;12.082;2023-03-25T11:11:49;98380.72;;;25.68;41.24
11172;BME280;5642;50.830;12.082;2023-03-25T11:14:21;98346.69;;;25.36;39.91
11172;BME280;5642;50.830;12.082;2023-03-25T11:16:53;98380.53;;;25.29;39.70
11172;BME280;5642;50.830;12.082;2023-03-25T11:19:32;98360.41;;;25.33;39.74
11172;BME280;5642;50.830;12.082;2023-03-25T11:22:15;98371.31;;;25.80;40.11
11172;BME280;5642;50.830;12.082;2023-03-25T11:24:46;98367.75;;;26.12;40.45
11172;BME280;5642;50.830;12.082;2023-03-25T11:27:38;98349.56;;;26.38;40.08
11172;BME280;5642;50.830;12.082;2023-03-25T11:30:28;98373.94;;;26.12;39.82
11172;BME280;5642;50.830;12.082;2023-03-25T11:33:10;98359.44;;;25.66;39.71
11172;BME280;5642;50.830;12.082;2023-03-25T11:35:40;98364.09;;;25.40;39.66
11172;BME280;5642;50.830;12.082;2023-03-25T11:38:19;98340.59;;;25.02;39.56
11172;BME280;5642;50.830;12.082;2023-03-25T11:40:56;98362.38;;;24.90;39.40
11172;BME280;5642;50.830;12.082;2023-03-25T11:43:26;98358.06;;;24.64;39.59
11172;BME280;5642;50.830;12.082;2023-03-25T11:45:56;98359.41;;;24.26;39.14
11172;BME280;5642;50.830;12.082;2023-03-25T11:48:23;98353.28;;;23.81;38.88
11172;BME280;5642;50.830;12.082;2023-03-25T11:50:57;98375.66;;;23.55;38.65
11172;BME280;5642;50.830;12.082;2023-03-25T11:53:26;98345.78;;;23.41;38.45
11172;BME280;5642;50.830;12.082;2023-03-25T11:55:59;98342.97;;;23.25;38.21
11172;BME280;5642;50.830;12.082;2023-03-25T11:58:30;98345.88;;;22.96;38.23
11172;BME280;5642;50.830;12.082;2023-03-25T12:01:04;98347.59;;;22.88;37.98
11172;BME280;5642;50.830;12.082;2023-03-25T12:03:33;98337.03;;;22.69;37.70
11172;BME280;5642;50.830;12.082;2023-03-25T12:08:49;98330.38;;;22.55;37.56
11172;BME280;5642;50.830;12.082;2023-03-25T12:16:51;98325.91;;;21.81;37.38
11172;BME280;5642;50.830;12.082;2023-03-25T12:22:39;98318.00;;;21.04;37.70
11172;BME280;5642;50.830;12.082;2023-03-25T12:40:37;98300.28;;;19.24;38.02
11172;BME280;5642;50.830;12.082;2023-03-25T12:43:10;98307.41;;;19.24;37.97
11172;BME280;5642;50.830;12.082;2023-03-25T12:48:47;98286.72;;;19.06;37.82
11172;BME280;5642;50.830;12.082;2023-03-25T13:02:05;98331.00;;;19.27;37.77
11172;BME280;5642;50.830;12.082;2023-03-25T13:04:46;98358.97;;;19.10;37.79
11172;BME280;5642;50.830;12.082;2023-03-25T13:07:21;98360.19;;;18.52;38.31
11172;BME280;5642;50.830;12.082;2023-03-25T13:09:59;98363.63;;;17.52;38.95
11172;BME280;5642;50.830;12.082;2023-03-25T13:12:39;98372.03;;;16.63;39.51
11172;BME280;5642;50.830;12.082;2023-03-25T13:15:19;98404.56;;;16.15;39.88
11172;BME280;5642;50.830;12.082;2023-03-25T13:17:50;98418.94;;;15.73;40.37
11172;BME280;5642;50.830;12.082;2023-03-25T13:20:20;98401.50;;;15.18;40.59
11172;BME280;5642;50.830;12.082;2023-03-25T13:22:51;98424.88;;;14.97;40.63
11172;BME280;5642;50.830;12.082;2023-03-25T13:25:25;98427.66;;;14.67;40.87
11172;BME280;5642;50.830;12.082;2023-03-25T13:27:54;98419.50;;;14.43;40.92
11172;BME280;5642;50.830;12.082;2023-03-25T13:30:29;98411.81;;;14.26;40.68
11172;BME280;5642;50.830;12.082;2023-03-25T13:33:02;98353.59;;;13.88;40.70
11172;BME280;5642;50.830;12.082;2023-03-25T13:35:48;98389.91;;;13.97;40.81
11172;BME280;5642;50.830;12.082;2023-03-25T13:38:42;98370.13;;;13.62;40.82
11172;BME280;5642;50.830;12.082;2023-03-25T13:41:22;98355.75;;;13.53;40.90
11172;BME280;5642;50.830;12.082;2023-03-25T13:43:56;98391.66;;;13.68;40.70
11172;BME280;5642;50.830;12.082;2023-03-25T13:46:35;98353.88;;;13.55;40.68
11172;BME280;5642;50.830;12.082;2023-03-25T13:49:29;98365.72;;;13.62;40.72
11172;BME280;5642;50.830;12.082;2023-03-25T13:51:58;98392.22;;;13.73;40.68
11172;BME280;5642;50.830;12.082;2023-03-25T14:00:07;98395.53;;;14.05;40.31
11172;BME280;5642;50.830;12.082;2023-03-25T14:05:34;98397.78;;;14.26;40.14
11172;BME280;5642;50.830;12.082;2023-03-25T14:08:29;98398.16;;;14.34;40.14
11172;BME280;5642;50.830;12.082;2023-03-25T14:12:21;98392.44;;;14.41;40.02
11172;BME280;5642;50.830;12.082;2023-03-25T14:14:16;98408.41;;;14.53;40.06
11172;BME280;5642;50.830;12.082;2023-03-25T14:17:03;98347.00;;;14.38;39.83
11172;BME280;5642;50.830;12.082;2023-03-25T14:19:33;98399.25;;;14.85;39.86
11172;BME280;5642;50.830;12.082;2023-03-25T14:22:25;98391.31;;;14.99;39.72
11172;BME280;5642;50.830;12.082;2023-03-25T14:24:52;98398.63;;;15.08;39.85
11172;BME280;5642;50.830;12.082;2023-03-25T14:27:23;98413.13;;;15.28;39.63
11172;BME280;5642;50.830;12.082;2023-03-25T14:29:56;98378.72;;;15.17;39.88
11172;BME280;5642;50.830;12.082;2023-03-25T14:48:31;98375.72;;;15.48;39.95
11172;BME280;5642;50.830;12.082;2023-03-25T14:59:53;98367.81;;;15.86;39.68
11172;BME280;5642;50.830;12.082;2023-03-25T15:02:26;98362.97;;;15.93;39.79
11172;BME280;5642;50.830;12.082;2023-03-25T15:05:01;98356.63;;;15.95;39.81
11172;BME280;5642;50.830;12.082;2023-03-25T15:07:48;98354.09;;;15.94;39.73
11172;BME280;5642;50.830;12.082;2023-03-25T15:13:02;98346.41;;;15.91;39.57
11172;BME280;5642;50.830;12.082;2023-03-25T15:15:33;98356.63;;;15.95;39.93
11172;BME280;5642;50.830;12.082;2023-03-25T15:23:41;98355.16;;;15.66;40.08
11172;BME280;5642;50.830;12.082;2023-03-25T15:40:32;98332.94;;;16.19;39.55
11172;BME280;5642;50.830;12.082;2023-03-25T15:52:10;98328.19;;;16.61;39.26
11172;BME280;5642;50.830;12.082;2023-03-25T15:54:47;98342.09;;;16.63;39.49
11172;BME280;5642;50.830;12.082;2023-03-25T16:03:19;98346.69;;;16.48;39.50
11172;BME280;5642;50.830;12.082;2023-03-25T16:05:51;98322.47;;;16.41;39.46
11172;BME280;5642;50.830;12.082;2023-03-25T16:08:24;98333.16;;;16.53;39.51
11172;BME280;5642;50.830;12.082;2023-03-25T16:10:50;98338.31;;;16.54;39.27
11172;BME280;5642;50.830;12.082;2023-03-25T16:13:16;98336.53;;;16.55;39.43
11172;BME280;5642;50.830;12.082;2023-03-25T16:15:54;98338.19;;;16.56;39.49
11172;BME280;5642;50.830;12.082;2023-03-25T16:18:22;98343.31;;;16.46;39.53
11172;BME280;5642;50.830;12.082;2023-03-25T16:20:55;98347.00;;;16.43;39.73
11172;BME280;5642;50.830;12.082;2023-03-25T16:23:22;98315.69;;;16.26;39.67